Time;durP1;ratioP1;P1;durP2;ratioP2;P2;SDS_P1;SDS_P2;PMS_P1;PMS_P2;Temp;Humidity;BMP_temperature;BMP_pressure;BME280_temperature;BME280_humidity;BME280_pressure;Samples;Min_cycle;Max_cycle;Signal;HPM_P1;HPM_P2
2024/02/24 00:02:09;;;;;;;;;1.33;1.33;;;;;-147.14;100.00;58812.66;4999762;28;45329;-48
2024/02/24 00:04:34;;;;;;;;;3.33;2.00;;;;;-147.14;100.00;58812.66;5018657;28;66674;-47
2024/02/24 00:07:00;;;;;;;;;1.00;1.00;;;;;-147.14;100.00;58812.66;5017206;28;71463;-50
2024/02/24 00:09:25;;;;;;;;;2.00;2.00;;;;;-147.14;100.00;58812.66;5017474;28;45478;-49
2024/02/24 00:11:50;;;;;;;;;2.00;1.00;;;;;-147.14;100.00;58812.66;5000686;28;58944;-48
2024/02/24 00:14:16;;;;;;;;;1.67;1.67;;;;;-147.14;100.00;58812.66;5017413;28;59717;-47
2024/02/24 00:16:41;;;;;;;;;1.67;1.33;;;;;-147.14;100.00;58812.66;5018828;28;45236;-48
2024/02/24 00:19:06;;;;;;;;;1.33;1.33;;;;;-147.14;100.00;58812.66;5000349;28;45237;-47
2024/02/24 00:21:32;;;;;;;;;2.00;1.00;;;;;-147.14;100.00;58812.66;5016856;28;64345;-48
2024/02/24 00:23:57;;;;;;;;;2.33;1.00;;;;;-147.14;100.00;58812.66;5000613;28;68662;-46
2024/02/24 00:26:22;;;;;;;;;3.00;2.00;;;;;-147.14;100.00;58812.66;5017394;28;59600;-47
2024/02/24 00:28:48;;;;;;;;;3.00;2.33;;;;;-147.14;100.00;58812.66;5004089;28;45371;-49
2024/02/24 00:31:14;;;;;;;;;4.00;1.00;;;;;-147.14;100.00;58812.66;5005648;28;45628;-49
2024/02/24 00:33:39;;;;;;;;;2.33;1.67;;;;;-147.14;100.00;58812.66;5016996;28;62838;-47
2024/02/24 00:36:04;;;;;;;;;0.00;0.00;;;;;-147.14;100.00;58812.66;5015940;28;74285;-49
2024/02/24 00:38:30;;;;;;;;;1.00;1.00;;;;;-147.14;100.00;58812.66;5018566;28;69048;-48
2024/02/24 00:40:55;;;;;;;;;1.00;1.00;;;;;-147.14;100.00;58812.66;5002782;28;54351;-47
2024/02/24 00:43:20;;;;;;;;;1.00;1.00;;;;;-147.14;100.00;58812.66;5020154;28;46116;-47
2024/02/24 00:45:47;;;;;;;;;2.00;0.00;;;;;-147.14;100.00;58812.66;5013277;28;70967;-47
2024/02/24 00:48:12;;;;;;;;;1.00;0.33;;;;;-147.14;100.00;58812.66;5004360;28;45754;-48
2024/02/24 00:50:38;;;;;;;;;0.67;0.67;;;;;-147.14;100.00;58812.66;5012488;28;45504;-47
2024/02/24 00:53:03;;;;;;;;;0.33;0.00;;;;;-147.14;100.00;58812.66;5018650;28;74223;-47
2024/02/24 00:55:28;;;;;;;;;3.00;1.00;;;;;-147.14;100.00;58812.66;5018885;28;45485;-47
2024/02/24 00:57:54;;;;;;;;;0.00;0.00;;;;;-147.14;100.00;58812.66;5019684;28;47284;-46
2024/02/24 01:00:19;;;;;;;;;1.00;0.00;;;;;-147.14;100.00;58812.66;5019969;28;45457;-47
2024/02/24 01:02:45;;;;;;;;;0.33;0.33;;;;;-147.14;100.00;58812.66;5021694;28;46365;-48
2024/02/24 01:05:10;;;;;;;;;0.00;0.00;;;;;-147.14;100.00;58812.66;5021912;28;45399;-50
2024/02/24 01:07:36;;;;;;;;;0.00;0.00;;;;;-147.14;100.00;58812.66;5021209;28;56127;-48
2024/02/24 01:10:01;;;;;;;;;1.00;1.00;;;;;-147.14;100.00;58812.66;5012007;28;45295;-48
2024/02/24 01:12:27;;;;;;;;;0.00;0.00;;;;;-147.14;100.00;58812.66;5020950;28;45301;-47
2024/02/24 01:14:53;;;;;;;;;2.00;1.00;;;;;-147.14;100.00;58812.66;5021190;28;45567;-46
2024/02/24 01:17:19;;;;;;;;;3.33;1.00;;;;;-147.14;100.00;58812.66;5020774;28;45332;-46
2024/02/24 01:19:44;;;;;;;;;2.00;0.00;;;;;-147.14;100.00;58812.66;5022104;28;45229;-46
2024/02/24 01:22:11;;;;;;;;;1.00;1.00;;;;;-147.14;100.00;58812.66;5002642;28;62525;-48
2024/02/24 01:24:37;;;;;;;;;1.00;1.00;;;;;-147.14;100.00;58812.66;5021883;28;45328;-46
2024/02/24 01:27:02;;;;;;;;;0.00;0.00;;;;;-147.14;100.00;58812.66;5020032;28;45431;-47
2024/02/24 01:29:28;;;;;;;;;0.67;0.67;;;;;-147.14;100.00;58812.66;5020629;28;45332;-47
2024/02/24 01:31:53;;;;;;;;;0.00;0.00;;;;;-147.14;100.00;58812.66;5021599;28;46447;-47
2024/02/24 01:34:19;;;;;;;;;1.00;1.00;;;;;-147.14;100.00;58812.66;5021151;28;45450;-50
2024/02/24 01:36:44;;;;;;;;;0.33;0.33;;;;;-147.14;100.00;58812.66;5019819;28;45377;-48
2024/02/24 01:39:09;;;;;;;;;0.00;0.00;;;;;-147.14;100.00;58812.66;5010074;28;45554;-49
2024/02/24 01:41:35;;;;;;;;;0.00;0.00;;;;;-147.14;100.00;58812.66;5020658;28;45940;-48
2024/02/24 01:44:00;;;;;;;;;0.33;0.33;;;;;-147.14;100.00;58812.66;5002882;28;69904;-47
2024/02/24 01:46:25;;;;;;;;;0.33;0.33;;;;;-147.14;100.00;58812.66;5002963;28;45951;-47
2024/02/24 01:48:51;;;;;;;;;2.00;0.67;;;;;-147.14;100.00;58812.66;5020998;28;62899;-48
2024/02/24 01:51:16;;;;;;;;;2.00;1.00;;;;;-147.14;100.00;58812.66;5018203;28;73928;-46
2024/02/24 01:53:42;;;;;;;;;0.00;0.00;;;;;-147.14;100.00;58812.66;5003523;28;45261;-47
2024/02/24 01:56:09;;;;;;;;;0.33;0.33;;;;;-147.14;100.00;58812.66;5020097;28;45486;-46
2024/02/24 01:58:37;;;;;;;;;1.67;1.00;;;;;-147.14;100.00;58812.66;5021409;28;45230;-47
2024/02/24 02:01:06;;;;;;;;;0.33;0.33;;;;;-147.14;100.00;58812.66;5003389;28;46160;-46
2024/02/24 02:03:31;;;;;;;;;2.00;1.00;;;;;-147.14;100.00;58812.66;5021248;28;45949;-48
2024/02/24 02:05:57;;;;;;;;;1.00;1.00;;;;;-147.14;100.00;58812.66;5001597;28;58463;-47
2024/02/24 02:08:22;;;;;;;;;1.00;1.00;;;;;-147.14;100.00;58812.66;5020137;28;45310;-47
2024/02/24 02:10:52;;;;;;;;;1.00;1.00;;;;;-147.14;100.00;58812.66;5000200;28;74405;-46
2024/02/24 02:13:18;;;;;;;;;3.00;1.00;;;;;-147.14;100.00;58812.66;5019809;28;45461;-48
2024/02/24 02:15:43;;;;;;;;;1.00;1.00;;;;;-147.14;100.00;58812.66;5020648;28;45324;-49
2024/02/24 02:18:09;;;;;;;;;2.00;0.67;;;;;-147.14;100.00;58812.66;5019342;28;45475;-49
2024/02/24 02:20:35;;;;;;;;;1.00;1.00;;;;;-147.14;100.00;58812.66;5019899;28;46268;-46
2024/02/24 02:23:00;;;;;;;;;0.00;0.00;;;;;-147.14;100.00;58812.66;5020706;28;49508;-47
2024/02/24 02:25:25;;;;;;;;;2.67;1.00;;;;;-147.14;100.00;58812.66;5019709;28;58299;-46
2024/02/24 02:27:51;;;;;;;;;1.00;1.00;;;;;-147.14;100.00;58812.66;5019598;28;45419;-46
2024/02/24 02:30:16;;;;;;;;;1.00;1.00;;;;;-147.14;100.00;58812.66;5018976;28;59080;-46
2024/02/24 02:32:41;;;;;;;;;1.00;1.00;;;;;-147.14;100.00;58812.66;5018661;28;71595;-47
2024/02/24 02:35:09;;;;;;;;;0.67;0.00;;;;;-147.14;100.00;58812.66;5019568;28;63782;-47
2024/02/24 02:37:35;;;;;;;;;1.00;1.00;;;;;-147.14;100.00;58812.66;4992322;28;45757;-48
2024/02/24 02:40:00;;;;;;;;;0.00;0.00;;;;;-147.14;100.00;58812.66;5020574;28;47188;-47
2024/02/24 02:42:25;;;;;;;;;2.00;0.00;;;;;-147.14;100.00;58812.66;5017702;28;60350;-46
2024/02/24 02:44:50;;;;;;;;;0.00;0.00;;;;;-147.14;100.00;58812.66;5019482;28;69299;-46
2024/02/24 02:47:16;;;;;;;;;0.33;0.33;;;;;-147.14;100.00;58812.66;5017793;28;45488;-49
2024/02/24 02:49:41;;;;;;;;;0.33;0.33;;;;;-147.14;100.00;58812.66;5018957;28;75868;-46
2024/02/24 02:52:06;;;;;;;;;0.00;0.00;;;;;-147.14;100.00;58812.66;5019184;28;64933;-47
2024/02/24 02:54:32;;;;;;;;;0.00;0.00;;;;;-147.14;100.00;58812.66;5004181;28;45271;-48
2024/02/24 02:56:58;;;;;;;;;3.00;0.00;;;;;-147.14;100.00;58812.66;5019680;28;45495;-47
2024/02/24 02:59:23;;;;;;;;;1.67;0.33;;;;;-147.14;100.00;58812.66;5014631;28;45427;-47
2024/02/24 03:01:51;;;;;;;;;0.67;0.67;;;;;-147.14;100.00;58812.66;5016323;28;67630;-48
2024/02/24 03:04:16;;;;;;;;;1.00;0.00;;;;;-147.14;100.00;58812.66;5019477;28;45418;-50
2024/02/24 03:06:41;;;;;;;;;2.00;0.67;;;;;-147.14;100.00;58812.66;5020322;28;45748;-50
2024/02/24 03:09:06;;;;;;;;;1.00;0.00;;;;;-147.14;100.00;58812.66;5016179;28;58020;-49
2024/02/24 03:11:33;;;;;;;;;0.00;0.00;;;;;-147.14;100.00;58812.66;5011101;28;72600;-50
2024/02/24 03:13:58;;;;;;;;;0.00;0.00;;;;;-147.14;100.00;58812.66;5018281;28;45431;-47
2024/02/24 03:16:24;;;;;;;;;0.00;0.00;;;;;-147.14;100.00;58812.66;5019168;28;45201;-50
2024/02/24 03:18:50;;;;;;;;;0.00;0.00;;;;;-147.14;100.00;58812.66;5019253;28;45965;-46
2024/02/24 03:21:29;;;;;;;;;2.33;0.67;;;;;-147.14;100.00;58812.66;5018160;28;45433;-46
2024/02/24 03:24:01;;;;;;;;;0.33;0.33;;;;;-147.14;100.00;58812.66;5002188;28;45369;-46
2024/02/24 03:26:27;;;;;;;;;2.00;0.00;;;;;-147.14;100.00;58812.66;5010128;28;45673;-46
2024/02/24 03:28:52;;;;;;;;;0.00;0.00;;;;;-147.14;100.00;58812.66;5019438;28;45373;-47
2024/02/24 03:31:18;;;;;;;;;2.00;1.00;;;;;-147.14;100.00;58812.66;5019041;28;45320;-50
2024/02/24 03:33:43;;;;;;;;;1.00;1.00;;;;;-147.14;100.00;58812.66;5002464;28;45432;-47
2024/02/24 03:36:17;;;;;;;;;2.00;0.00;;;;;-147.14;100.00;58812.66;5016895;28;67552;-48
2024/02/24 03:38:43;;;;;;;;;3.67;1.33;;;;;-147.14;100.00;58812.66;5018071;28;45396;-47
2024/02/24 03:41:09;;;;;;;;;1.00;1.00;;;;;-147.14;100.00;58812.66;5014468;28;62675;-48
2024/02/24 03:43:35;;;;;;;;;0.67;0.67;;;;;-147.14;100.00;58812.66;5017853;28;45451;-46
2024/02/24 03:46:02;;;;;;;;;1.00;1.00;;;;;-147.14;100.00;58812.66;5012791;28;45412;-46
2024/02/24 03:48:27;;;;;;;;;3.33;2.00;;;;;-147.14;100.00;58812.66;5019479;28;46201;-49
2024/02/24 03:50:53;;;;;;;;;0.67;0.67;;;;;-147.14;100.00;58812.66;5018273;28;73177;-49
2024/02/24 03:53:18;;;;;;;;;1.00;0.00;;;;;-147.14;100.00;58812.66;5018847;28;53152;-47
2024/02/24 03:55:43;;;;;;;;;0.33;0.33;;;;;-147.14;100.00;58812.66;5015810;28;64973;-49
2024/02/24 03:58:09;;;;;;;;;1.00;1.00;;;;;-147.14;100.00;58812.66;5016137;28;46412;-46
2024/02/24 04:00:34;;;;;;;;;1.00;1.00;;;;;-147.14;100.00;58812.66;4985815;28;45350;-47
2024/02/24 04:03:01;;;;;;;;;3.00;0.00;;;;;-147.14;100.00;58812.66;4985152;28;45259;-47
2024/02/24 04:05:26;;;;;;;;;2.00;1.00;;;;;-147.14;100.00;58812.66;5018807;28;45351;-50
2024/02/24 04:07:52;;;;;;;;;2.00;1.00;;;;;-147.14;100.00;58812.66;5017883;28;73637;-49
2024/02/24 04:10:17;;;;;;;;;1.33;1.33;;;;;-147.14;100.00;58812.66;5017268;28;70170;-47
2024/02/24 04:12:42;;;;;;;;;0.00;0.00;;;;;-147.14;100.00;58812.66;5018345;28;45365;-46
2024/02/24 04:15:08;;;;;;;;;0.00;0.00;;;;;-147.14;100.00;58812.66;5016418;28;57900;-49
2024/02/24 04:17:34;;;;;;;;;2.00;0.00;;;;;-147.14;100.00;58812.66;5016602;28;45316;-48
2024/02/24 04:19:59;;;;;;;;;2.33;1.00;;;;;-147.14;100.00;58812.66;5018244;28;45302;-50
2024/02/24 04:22:24;;;;;;;;;1.00;1.00;;;;;-147.14;100.00;58812.66;5017135;28;67757;-48
2024/02/24 04:24:51;;;;;;;;;1.00;1.00;;;;;-147.14;100.00;58812.66;5018498;28;54350;-47
2024/02/24 04:27:17;;;;;;;;;1.00;1.00;;;;;-147.14;100.00;58812.66;5003972;28;47088;-50
2024/02/24 04:29:42;;;;;;;;;1.00;1.00;;;;;-147.14;100.00;58812.66;5016099;28;45431;-47
2024/02/24 04:32:07;;;;;;;;;2.00;2.00;;;;;-147.14;100.00;58812.66;5017941;28;67453;-50
2024/02/24 04:34:32;;;;;;;;;2.00;1.00;;;;;-147.14;100.00;58812.66;5016825;28;67174;-48
2024/02/24 04:36:58;;;;;;;;;0.00;0.00;;;;;-147.14;100.00;58812.66;5017680;28;72216;-53
2024/02/24 04:39:23;;;;;;;;;1.00;0.00;;;;;-147.14;100.00;58812.66;5017164;28;68374;-46
2024/02/24 04:41:49;;;;;;;;;1.00;1.00;;;;;-147.14;100.00;58812.66;5018560;28;53624;-48
2024/02/24 04:44:14;;;;;;;;;0.67;0.67;;;;;-147.14;100.00;58812.66;5016426;28;45513;-48
2024/02/24 04:46:39;;;;;;;;;1.00;1.00;;;;;-147.14;100.00;58812.66;5018159;28;51638;-49
2024/02/24 04:49:05;;;;;;;;;0.33;0.33;;;;;-147.14;100.00;58812.66;5015615;28;65503;-49
2024/02/24 04:51:31;;;;;;;;;1.33;1.00;;;;;-147.14;100.00;58812.66;5017447;28;45543;-49
2024/02/24 04:53:56;;;;;;;;;1.00;1.00;;;;;-147.14;100.00;58812.66;5014937;28;45324;-49
2024/02/24 04:56:22;;;;;;;;;2.33;1.00;;;;;-147.14;100.00;58812.66;5017821;28;45511;-49
2024/02/24 04:58:47;;;;;;;;;3.33;2.00;;;;;-147.14;100.00;58812.66;5016062;28;45331;-50
2024/02/24 05:01:16;;;;;;;;;1.67;1.67;;;;;-147.14;100.00;58812.66;5005144;28;45221;-48
2024/02/24 05:03:41;;;;;;;;;1.33;1.33;;;;;-147.14;100.00;58812.66;5016851;28;45498;-48
2024/02/24 05:06:08;;;;;;;;;1.00;1.00;;;;;-147.14;100.00;58812.66;5016467;28;72112;-49
2024/02/24 05:08:34;;;;;;;;;1.67;1.67;;;;;-147.14;100.00;58812.66;5018059;28;45336;-47
2024/02/24 05:11:00;;;;;;;;;1.33;1.33;;;;;-147.14;100.00;58812.66;4990321;28;45510;-50
2024/02/24 05:13:25;;;;;;;;;2.00;1.00;;;;;-147.14;100.00;58812.66;5017301;28;45234;-45
2024/02/24 05:15:51;;;;;;;;;3.00;1.33;;;;;-147.14;100.00;58812.66;5017541;28;46076;-45
2024/02/24 05:18:17;;;;;;;;;1.00;1.00;;;;;-147.14;100.00;58812.66;5017090;28;45364;-46
2024/02/24 05:20:42;;;;;;;;;1.00;1.00;;;;;-147.14;100.00;58812.66;5017739;28;45373;-46
2024/02/24 05:23:07;;;;;;;;;2.00;1.00;;;;;-147.14;100.00;58812.66;5017318;28;45438;-45
2024/02/24 05:25:34;;;;;;;;;2.00;2.00;;;;;-147.14;100.00;58812.66;5019302;28;46231;-46
2024/02/24 05:27:59;;;;;;;;;1.67;1.67;;;;;-147.14;100.00;58812.66;5021511;28;45431;-46
2024/02/24 05:30:25;;;;;;;;;1.67;1.67;;;;;-147.14;100.00;58812.66;5019904;28;45627;-46
2024/02/24 05:32:50;;;;;;;;;1.00;1.00;;;;;-147.14;100.00;58812.66;5020010;28;45504;-46
2024/02/24 05:35:15;;;;;;;;;3.00;2.00;;;;;-147.14;100.00;58812.66;5019433;28;67729;-46
2024/02/24 05:37:41;;;;;;;;;1.67;1.67;;;;;-147.14;100.00;58812.66;5020562;28;45190;-46
2024/02/24 05:40:07;;;;;;;;;1.67;1.67;;;;;-147.14;100.00;58812.66;5021054;28;45423;-47
2024/02/24 05:42:32;;;;;;;;;3.00;0.67;;;;;-147.14;100.00;58812.66;5021583;28;45284;-49
2024/02/24 05:44:58;;;;;;;;;3.00;3.00;;;;;-147.14;100.00;58812.66;4987054;28;75474;-49
2024/02/24 05:47:23;;;;;;;;;2.00;2.00;;;;;-147.14;100.00;58812.66;5019741;28;73171;-46
2024/02/24 05:49:48;;;;;;;;;4.00;2.33;;;;;-147.14;100.00;58812.66;5019821;28;56379;-48
2024/02/24 05:52:16;;;;;;;;;2.00;2.00;;;;;-147.14;100.00;58812.66;5019452;28;64771;-46
2024/02/24 05:54:41;;;;;;;;;5.67;3.00;;;;;-147.14;100.00;58812.66;5020107;28;45421;-48
2024/02/24 05:57:07;;;;;;;;;3.00;2.67;;;;;-147.14;100.00;58812.66;5019563;28;59013;-46
2024/02/24 05:59:34;;;;;;;;;7.67;3.00;;;;;-147.14;100.00;58812.66;5021133;28;45385;-47
2024/02/24 06:02:00;;;;;;;;;2.67;1.33;;;;;-147.14;100.00;58812.66;5021087;28;45407;-46
2024/02/24 06:04:25;;;;;;;;;2.00;2.00;;;;;-147.14;100.00;58812.66;5019611;28;46392;-47
2024/02/24 06:06:51;;;;;;;;;2.33;2.33;;;;;-147.14;100.00;58812.66;5003102;28;45293;-50
2024/02/24 06:09:16;;;;;;;;;4.00;2.33;;;;;-147.14;100.00;58812.66;5019083;28;45755;-48
2024/02/24 06:11:41;;;;;;;;;2.00;2.00;;;;;-147.14;100.00;58812.66;5020101;28;65255;-47
2024/02/24 06:14:07;;;;;;;;;3.00;3.00;;;;;-147.14;100.00;58812.66;5018690;28;65969;-46
2024/02/24 06:16:32;;;;;;;;;3.00;3.00;;;;;-147.14;100.00;58812.66;5006568;28;45614;-47
2024/02/24 06:18:58;;;;;;;;;4.00;2.67;;;;;-147.14;100.00;58812.66;5007713;28;45354;-48
2024/02/24 06:21:23;;;;;;;;;2.00;2.00;;;;;-147.14;100.00;58812.66;5019789;28;45345;-48
2024/02/24 06:23:49;;;;;;;;;2.33;2.33;;;;;-147.14;100.00;58812.66;5019716;28;69205;-47
2024/02/24 06:26:14;;;;;;;;;3.67;2.00;;;;;-147.14;100.00;58812.66;5014773;28;45242;-46
2024/02/24 06:28:41;;;;;;;;;2.00;2.00;;;;;-147.14;100.00;58812.66;5018459;28;45289;-46
2024/02/24 06:31:06;;;;;;;;;3.00;1.67;;;;;-147.14;100.00;58812.66;5014352;28;45455;-46
2024/02/24 06:33:31;;;;;;;;;2.33;1.33;;;;;-147.14;100.00;58812.66;5001176;28;45408;-48
2024/02/24 06:35:57;;;;;;;;;2.00;2.00;;;;;-147.14;100.00;58812.66;5011976;28;45360;-47
2024/02/24 06:38:22;;;;;;;;;2.00;2.00;;;;;-147.14;100.00;58812.66;5016984;28;45361;-49
2024/02/24 06:40:47;;;;;;;;;3.67;3.00;;;;;-147.14;100.00;58812.66;4999997;28;68884;-47
2024/02/24 06:43:13;;;;;;;;;3.00;3.00;;;;;-147.14;100.00;58812.66;5017531;28;70005;-47
2024/02/24 06:45:38;;;;;;;;;2.00;2.00;;;;;-147.14;100.00;58812.66;5019197;28;45287;-46
2024/02/24 06:48:04;;;;;;;;;4.00;1.33;;;;;-147.14;100.00;58812.66;4999611;28;63032;-52
2024/02/24 06:50:29;;;;;;;;;3.67;3.00;;;;;-147.14;100.00;58812.66;5020018;28;45325;-46
2024/02/24 06:52:55;;;;;;;;;3.33;2.00;;;;;-147.14;100.00;58812.66;5019874;28;45526;-47
2024/02/24 06:55:20;;;;;;;;;1.00;1.00;;;;;-147.14;100.00;58812.66;5015696;28;45380;-48
2024/02/24 06:57:45;;;;;;;;;1.00;1.00;;;;;-147.14;100.00;58812.66;5018800;28;45371;-47
2024/02/24 07:00:12;;;;;;;;;1.00;1.00;;;;;-147.14;100.00;58812.66;5017608;28;45506;-47
2024/02/24 07:02:37;;;;;;;;;1.67;1.00;;;;;-147.14;100.00;58812.66;5018784;28;46201;-47
2024/02/24 07:05:03;;;;;;;;;1.33;1.33;;;;;-147.14;100.00;58812.66;5018931;28;45337;-47
2024/02/24 07:07:28;;;;;;;;;2.00;2.00;;;;;-147.14;100.00;58812.66;5001910;28;45450;-46
2024/02/24 07:09:54;;;;;;;;;4.00;2.67;;;;;-147.14;100.00;58812.66;5014752;28;45201;-47
2024/02/24 07:12:19;;;;;;;;;2.00;2.00;;;;;-147.14;100.00;58812.66;4983857;28;48696;-50
2024/02/24 07:14:45;;;;;;;;;1.33;1.33;;;;;-147.14;100.00;58812.66;5015575;28;73528;-48
2024/02/24 07:17:10;;;;;;;;;2.00;2.00;;;;;-147.14;100.00;58812.66;5013437;28;45356;-49
2024/02/24 07:19:36;;;;;;;;;2.00;2.00;;;;;-147.14;100.00;58812.66;5015211;28;68793;-47
2024/02/24 07:22:01;;;;;;;;;4.33;2.67;;;;;-147.14;100.00;58812.66;5015610;28;45411;-46
2024/02/24 07:24:27;;;;;;;;;4.33;2.00;;;;;-147.14;100.00;58812.66;5002028;28;45698;-46
2024/02/24 07:26:52;;;;;;;;;4.00;2.00;;;;;-147.14;100.00;58812.66;5013698;28;45456;-48
2024/02/24 07:29:17;;;;;;;;;2.00;2.00;;;;;-147.14;100.00;58812.66;5012199;28;45447;-47
2024/02/24 07:31:43;;;;;;;;;5.67;2.00;;;;;-147.14;100.00;58812.66;5000997;28;48691;-47
2024/02/24 07:34:08;;;;;;;;;3.00;3.00;;;;;-147.14;100.00;58812.66;5009409;28;72214;-47
2024/02/24 07:36:33;;;;;;;;;2.00;2.00;;;;;-147.14;100.00;58812.66;5009120;28;66896;-49
2024/02/24 07:38:59;;;;;;;;;4.67;2.33;;;;;-147.14;100.00;58812.66;5000076;28;58653;-51
2024/02/24 07:41:24;;;;;;;;;2.00;2.00;;;;;-147.14;100.00;58812.66;5007462;28;46318;-47
2024/02/24 07:43:50;;;;;;;;;1.00;1.00;;;;;-147.14;100.00;58812.66;5014279;28;67650;-48
2024/02/24 07:46:28;;;;;;;;;3.00;2.00;;;;;-147.14;100.00;58812.66;5004486;28;45337;-46
2024/02/24 07:48:56;;;;;;;;;4.67;2.00;;;;;-147.14;100.00;58812.66;4997805;28;45398;-47
2024/02/24 07:51:21;;;;;;;;;5.00;2.00;;;;;-147.14;100.00;58812.66;5017357;28;46127;-50
2024/02/24 07:53:47;;;;;;;;;4.00;3.00;;;;;-147.14;100.00;58812.66;5000686;28;45492;-47
2024/02/24 07:56:12;;;;;;;;;3.67;2.00;;;;;-147.14;100.00;58812.66;5014078;28;68451;-48
2024/02/24 07:58:37;;;;;;;;;2.00;2.00;;;;;-147.14;100.00;58812.66;5017868;28;70742;-47
2024/02/24 08:01:03;;;;;;;;;2.00;1.00;;;;;-147.14;100.00;58812.66;5010151;28;67951;-50
2024/02/24 08:03:28;;;;;;;;;2.67;2.00;;;;;-147.14;100.00;58812.66;4997937;28;45408;-47
2024/02/24 08:05:53;;;;;;;;;1.00;1.00;;;;;-147.14;100.00;58812.66;4986581;28;68148;-47
2024/02/24 08:08:19;;;;;;;;;3.00;2.00;;;;;-147.14;100.00;58812.66;5008147;28;70580;-47
2024/02/24 08:10:44;;;;;;;;;2.00;2.00;;;;;-147.14;100.00;58812.66;5006284;28;45431;-47
2024/02/24 08:13:10;;;;;;;;;2.00;2.00;;;;;-147.14;100.00;58812.66;5014017;28;71328;-48
2024/02/24 08:15:35;;;;;;;;;2.33;2.33;;;;;-147.14;100.00;58812.66;5015769;28;65673;-48
2024/02/24 08:18:01;;;;;;;;;1.33;1.33;;;;;-147.14;100.00;58812.66;5013430;28;66416;-46
2024/02/24 08:20:27;;;;;;;;;1.67;1.67;;;;;-147.14;100.00;58812.66;5018753;28;46175;-47
2024/02/24 08:22:52;;;;;;;;;1.67;1.67;;;;;-147.14;100.00;58812.66;5015820;28;45361;-48
2024/02/24 08:25:17;;;;;;;;;2.00;2.00;;;;;-147.14;100.00;58812.66;4988601;28;45645;-48
2024/02/24 08:27:43;;;;;;;;;2.00;1.33;;;;;-147.14;100.00;58812.66;4998665;28;45313;-48
2024/02/24 08:30:08;;;;;;;;;2.00;2.00;;;;;-147.14;100.00;58812.66;5009069;28;66291;-48
2024/02/24 08:32:34;;;;;;;;;3.33;1.67;;;;;-147.14;100.00;58812.66;5008774;28;45292;-47
2024/02/24 08:34:59;;;;;;;;;2.00;1.00;;;;;-147.14;100.00;58812.66;5012795;28;45280;-48
2024/02/24 08:37:24;;;;;;;;;2.00;2.00;;;;;-147.14;100.00;58812.66;5010551;28;68531;-47
2024/02/24 08:39:50;;;;;;;;;2.67;1.00;;;;;-147.14;100.00;58812.66;5015318;28;72684;-47
2024/02/24 08:42:15;;;;;;;;;5.33;2.00;;;;;-147.14;100.00;58812.66;5001520;28;45391;-46
2024/02/24 08:44:40;;;;;;;;;2.00;2.00;;;;;-147.14;100.00;58812.66;5003261;28;45348;-47
2024/02/24 08:47:06;;;;;;;;;1.67;1.00;;;;;-147.14;100.00;58812.66;5015227;28;70578;-49
2024/02/24 08:49:31;;;;;;;;;1.00;1.00;;;;;-147.14;100.00;58812.66;5016908;28;65985;-51
2024/02/24 08:51:57;;;;;;;;;1.00;1.00;;;;;-147.14;100.00;58812.66;5015358;28;56230;-50
2024/02/24 08:54:22;;;;;;;;;6.00;2.00;;;;;-147.14;100.00;58812.66;5013043;28;45507;-50
2024/02/24 08:56:47;;;;;;;;;2.33;1.00;;;;;-147.14;100.00;58812.66;5010927;28;45727;-50
2024/02/24 08:59:13;;;;;;;;;1.00;1.00;;;;;-147.14;100.00;58812.66;5016629;28;46953;-49
2024/02/24 09:01:38;;;;;;;;;3.00;1.67;;;;;-147.14;100.00;58812.66;5011706;28;72181;-47
2024/02/24 09:04:04;;;;;;;;;2.00;2.00;;;;;-147.14;100.00;58812.66;5005721;28;45294;-46
2024/02/24 09:06:31;;;;;;;;;1.33;1.33;;;;;-147.14;100.00;58812.66;5004377;28;45457;-46
2024/02/24 09:08:56;;;;;;;;;2.00;2.00;;;;;-147.14;100.00;58812.66;5019826;28;45590;-47
2024/02/24 09:11:22;;;;;;;;;2.33;1.67;;;;;-147.14;100.00;58812.66;5015475;28;45305;-45
2024/02/24 09:13:47;;;;;;;;;1.00;1.00;;;;;-147.14;100.00;58812.66;5010725;28;45258;-47
2024/02/24 09:16:16;;;;;;;;;3.00;1.00;;;;;-147.14;100.00;58812.66;5021027;28;45578;-47
2024/02/24 09:18:42;;;;;;;;;1.00;1.00;;;;;-147.14;100.00;58812.66;5017679;28;46700;-49
2024/02/24 09:21:10;;;;;;;;;4.00;2.67;;;;;-147.14;100.00;58812.66;5019205;28;45378;-46
2024/02/24 09:23:35;;;;;;;;;8.00;2.00;;;;;-147.14;100.00;58812.66;4987106;28;45476;-46
2024/02/24 09:26:02;;;;;;;;;1.33;1.33;;;;;-147.14;100.00;58812.66;4993868;28;58364;-48
2024/02/24 09:28:27;;;;;;;;;3.00;1.00;;;;;-147.14;100.00;58812.66;5020043;28;45584;-47
2024/02/24 09:30:52;;;;;;;;;0.00;0.00;;;;;-147.14;100.00;58812.66;5012885;28;67323;-48
2024/02/24 09:33:18;;;;;;;;;1.00;1.00;;;;;-147.14;100.00;58812.66;5002679;28;66868;-46
2024/02/24 09:35:43;;;;;;;;;3.00;1.67;;;;;-147.14;100.00;58812.66;5004295;28;45457;-50
2024/02/24 09:38:09;;;;;;;;;2.00;2.00;;;;;-147.14;100.00;58812.66;5016249;28;72588;-51
2024/02/24 09:40:34;;;;;;;;;1.67;1.00;;;;;-147.14;100.00;58812.66;5013266;28;62616;-49
2024/02/24 09:43:04;;;;;;;;;3.00;1.00;;;;;-147.14;100.00;58812.66;5015257;28;56912;-47
2024/02/24 09:45:34;;;;;;;;;3.33;0.67;;;;;-147.14;100.00;58812.66;5020334;28;45479;-49
2024/02/24 09:48:03;;;;;;;;;1.00;1.00;;;;;-147.14;100.00;58812.66;5020821;28;46460;-50
2024/02/24 09:50:28;;;;;;;;;1.00;1.00;;;;;-147.14;100.00;58812.66;5019978;28;45309;-49
2024/02/24 09:52:53;;;;;;;;;2.00;2.00;;;;;-147.14;100.00;58812.66;5016160;28;65459;-54
2024/02/24 09:55:19;;;;;;;;;1.00;1.00;;;;;-147.14;100.00;58812.66;4989031;28;53897;-50
2024/02/24 09:57:45;;;;;;;;;0.00;0.00;;;;;-147.14;100.00;58812.66;4997988;28;67700;-47
2024/02/24 10:00:11;;;;;;;;;1.67;1.00;;;;;-147.14;100.00;58812.66;5002584;28;45565;-50
2024/02/24 10:02:36;;;;;;;;;1.00;1.00;;;;;-147.14;100.00;58812.66;5018168;28;46482;-49
2024/02/24 10:05:02;;;;;;;;;2.00;2.00;;;;;-147.14;100.00;58812.66;5017535;28;45463;-48
2024/02/24 10:07:30;;;;;;;;;1.67;1.67;;;;;-147.14;100.00;58812.66;5017845;28;46032;-50
2024/02/24 10:09:55;;;;;;;;;2.33;1.33;;;;;-147.14;100.00;58812.66;5020279;28;45278;-49
2024/02/24 10:12:21;;;;;;;;;0.67;0.67;;;;;-147.14;100.00;58812.66;5020098;28;45238;-47
2024/02/24 10:14:46;;;;;;;;;0.67;0.67;;;;;-147.14;100.00;58812.66;5020131;28;66887;-49
2024/02/24 10:17:11;;;;;;;;;2.33;1.00;;;;;-147.14;100.00;58812.66;5019055;28;76998;-51
2024/02/24 10:19:37;;;;;;;;;0.67;0.67;;;;;-147.14;100.00;58812.66;5019978;28;69037;-52
2024/02/24 10:22:05;;;;;;;;;1.67;1.67;;;;;-147.14;100.00;58812.66;5000818;28;46394;-49
2024/02/24 10:24:32;;;;;;;;;1.00;1.00;;;;;-147.14;100.00;58812.66;5017336;28;45365;-49
2024/02/24 10:26:58;;;;;;;;;0.33;0.33;;;;;-147.14;100.00;58812.66;4992163;28;46999;-51
2024/02/24 10:29:30;;;;;;;;;1.00;1.00;;;;;-147.14;100.00;58812.66;4985300;28;45492;-51
2024/02/24 10:31:59;;;;;;;;;0.33;0.33;;;;;-147.14;100.00;58812.66;5014792;28;45456;-52
2024/02/24 10:34:25;;;;;;;;;1.00;1.00;;;;;-147.14;100.00;58812.66;5011297;28;45401;-51
2024/02/24 10:36:51;;;;;;;;;2.50;0.75;;;;;-147.14;100.00;58812.66;5019137;28;46900;-51
2024/02/24 10:39:17;;;;;;;;;0.00;0.00;;;;;-147.14;100.00;58812.66;5009016;28;45309;-52
2024/02/24 10:41:46;;;;;;;;;2.50;1.00;;;;;-147.14;100.00;58812.66;4979867;28;45459;-49
2024/02/24 10:44:13;;;;;;;;;1.00;1.00;;;;;-147.14;100.00;58812.66;5008690;28;45364;-48
2024/02/24 10:46:39;;;;;;;;;1.00;1.00;;;;;-147.14;100.00;58812.66;5010329;28;46246;-49
2024/02/24 10:49:04;;;;;;;;;1.75;1.75;;;;;-147.14;100.00;58812.66;4988406;28;45455;-46
2024/02/24 10:51:31;;;;;;;;;0.75;0.75;;;;;-147.14;100.00;58812.66;5018084;28;66626;-51
2024/02/24 10:54:02;;;;;;;;;2.50;1.00;;;;;-147.14;100.00;58812.66;4989801;28;45739;-47
2024/02/24 10:56:28;;;;;;;;;0.00;0.00;;;;;-147.14;100.00;58812.66;5009170;28;46682;-55
2024/02/24 10:59:10;;;;;;;;;1.00;1.00;;;;;-147.14;100.00;58812.66;5009894;28;49276;-47
2024/02/24 11:01:45;;;;;;;;;0.75;0.75;;;;;-147.14;100.00;58812.66;4997287;28;45456;-47
2024/02/24 11:04:12;;;;;;;;;2.00;2.00;;;;;-147.14;100.00;58812.66;4985262;28;45527;-51